Time;durP1;ratioP1;P1;durP2;ratioP2;P2;SDS_P1;SDS_P2;PMS_P1;PMS_P2;Temp;Humidity;BMP_temperature;BMP_pressure;BME280_temperature;BME280_humidity;BME280_pressure;Samples;Min_cycle;Max_cycle;Signal;HPM_P1;HPM_P2
2024/01/30 00:01:49;;;;;;;2.00;1.60;;;25.10;53.60;;;;;;5017186;28;20462;-85
2024/01/30 00:04:17;;;;;;;2.37;1.70;;;25.10;53.60;;;;;;5017084;28;20446;-85
2024/01/30 00:06:44;;;;;;;3.07;2.30;;;25.10;53.60;;;;;;5016988;28;20446;-85
2024/01/30 00:09:11;;;;;;;2.20;1.60;;;25.10;53.70;;;;;;5017049;28;20431;-86
2024/01/30 00:11:39;;;;;;;2.50;2.10;;;25.00;53.60;;;;;;5016477;28;20443;-85
2024/01/30 00:14:06;;;;;;;3.03;2.07;;;25.00;53.60;;;;;;5016588;28;20534;-85
2024/01/30 00:16:33;;;;;;;2.33;1.93;;;25.00;53.60;;;;;;5016564;28;20435;-86
2024/01/30 00:19:02;;;;;;;2.10;1.83;;;25.00;53.60;;;;;;5016547;28;20809;-85
2024/01/30 00:21:28;;;;;;;2.93;2.10;;;25.00;53.70;;;;;;5016224;28;20438;-85
2024/01/30 00:23:55;;;;;;;2.47;1.90;;;25.00;53.60;;;;;;5016750;28;20494;-85
2024/01/30 00:26:22;;;;;;;2.30;1.97;;;25.00;53.70;;;;;;5016548;28;20438;-87
2024/01/30 00:28:50;;;;;;;2.27;1.80;;;25.00;53.70;;;;;;5016358;28;20449;-85
2024/01/30 00:31:17;;;;;;;2.43;1.77;;;25.00;53.60;;;;;;5016439;28;20439;-84
2024/01/30 00:33:44;;;;;;;2.20;1.77;;;24.90;53.60;;;;;;5016398;28;20487;-85
2024/01/30 00:36:11;;;;;;;2.37;1.87;;;24.90;53.60;;;;;;5016000;28;20446;-85
2024/01/30 00:38:38;;;;;;;2.40;1.73;;;24.90;53.60;;;;;;5016420;28;20445;-86
2024/01/30 00:41:05;;;;;;;3.23;2.10;;;24.90;53.60;;;;;;5016182;28;20455;-85
2024/01/30 00:43:32;;;;;;;2.40;1.90;;;24.90;53.60;;;;;;5018710;28;20515;-85
2024/01/30 00:46:00;;;;;;;2.80;2.40;;;24.90;53.60;;;;;;5019356;28;20439;-86
2024/01/30 00:48:27;;;;;;;2.27;1.80;;;25.00;53.70;;;;;;5018312;28;20445;-82
2024/01/30 00:50:53;;;;;;;2.80;2.00;;;24.80;53.60;;;;;;5017132;28;20474;-85
2024/01/30 00:53:20;;;;;;;2.73;2.10;;;24.80;53.60;;;;;;5016260;28;20487;-86
2024/01/30 00:55:47;;;;;;;3.13;1.77;;;24.80;53.60;;;;;;5015911;28;20482;-84
2024/01/30 00:58:14;;;;;;;3.37;1.80;;;24.80;53.60;;;;;;5015872;28;20954;-85
2024/01/30 01:00:41;;;;;;;2.10;1.70;;;24.80;53.60;;;;;;5015869;28;20447;-86
2024/01/30 01:03:09;;;;;;;2.20;1.87;;;24.80;53.60;;;;;;5016144;28;20441;-91
2024/01/30 01:05:36;;;;;;;2.17;1.97;;;24.90;53.70;;;;;;5015882;28;20435;-91
2024/01/30 01:08:02;;;;;;;3.00;2.17;;;24.80;53.60;;;;;;5015765;28;20801;-86
2024/01/30 01:10:29;;;;;;;2.00;1.80;;;24.80;53.60;;;;;;5015956;28;20437;-85
2024/01/30 01:12:56;;;;;;;1.80;1.60;;;24.70;53.60;;;;;;5015445;28;20479;-85
2024/01/30 01:15:23;;;;;;;2.73;2.07;;;24.80;53.70;;;;;;5015783;28;20793;-85
2024/01/30 01:17:49;;;;;;;2.23;2.03;;;24.70;53.60;;;;;;5015578;28;20450;-86
2024/01/30 01:20:18;;;;;;;2.30;1.80;;;24.70;53.60;;;;;;5017032;28;20455;-90
2024/01/30 01:22:44;;;;;;;2.43;2.00;;;24.70;53.60;;;;;;5017883;28;20449;-85
2024/01/30 01:25:11;;;;;;;2.47;1.77;;;24.70;53.60;;;;;;5016382;28;20443;-85
2024/01/30 01:27:40;;;;;;;2.53;1.80;;;24.70;53.60;;;;;;5015378;28;20442;-86
2024/01/30 01:30:10;;;;;;;2.63;2.03;;;24.70;53.70;;;;;;5015277;28;20526;-91
2024/01/30 01:32:38;;;;;;;2.30;2.10;;;24.70;53.70;;;;;;5014230;28;20569;-85
2024/01/30 01:35:05;;;;;;;2.70;1.90;;;24.70;53.70;;;;;;5015048;28;20455;-85
2024/01/30 01:37:33;;;;;;;2.60;2.03;;;24.70;53.70;;;;;;5014999;28;20486;-86
2024/01/30 01:40:01;;;;;;;2.10;1.80;;;24.70;53.80;;;;;;5014766;28;20435;-84
2024/01/30 01:42:27;;;;;;;2.50;2.10;;;24.70;53.70;;;;;;4997537;28;20447;-83
2024/01/30 01:44:54;;;;;;;2.50;1.70;;;24.70;53.70;;;;;;5015180;28;20867;-84
2024/01/30 01:47:21;;;;;;;2.30;1.90;;;24.60;53.70;;;;;;5014383;28;20969;-84
2024/01/30 01:49:48;;;;;;;2.63;2.00;;;24.70;53.70;;;;;;5014964;28;20461;-84
2024/01/30 01:52:15;;;;;;;2.30;1.87;;;24.80;53.80;;;;;;5014897;28;20435;-84
2024/01/30 01:54:44;;;;;;;2.50;2.00;;;24.70;53.70;;;;;;5014616;28;20442;-88
2024/01/30 01:57:11;;;;;;;2.33;1.87;;;24.70;53.60;;;;;;5014578;28;20445;-85
2024/01/30 01:59:38;;;;;;;2.50;2.30;;;24.70;53.60;;;;;;5014855;28;20435;-84
2024/01/30 02:02:07;;;;;;;2.00;1.60;;;24.70;53.70;;;;;;5014664;28;20454;-86
2024/01/30 02:04:34;;;;;;;2.10;1.77;;;24.70;53.70;;;;;;5014666;28;20448;-87
2024/01/30 02:07:00;;;;;;;2.17;1.83;;;24.70;54.20;;;;;;5014541;28;20439;-85
2024/01/30 02:09:27;;;;;;;2.80;1.87;;;24.70;53.60;;;;;;5014886;28;20506;-87
2024/01/30 02:11:56;;;;;;;2.43;2.20;;;24.70;53.70;;;;;;5014333;28;20442;-84
2024/01/30 02:14:22;;;;;;;2.20;1.90;;;24.70;53.60;;;;;;5014447;28;20487;-84
2024/01/30 02:16:49;;;;;;;2.77;1.97;;;24.70;53.60;;;;;;5014171;28;20447;-83
2024/01/30 02:19:16;;;;;;;3.20;2.43;;;24.70;53.60;;;;;;5014436;28;20463;-84
2024/01/30 02:21:46;;;;;;;2.30;2.00;;;24.70;53.50;;;;;;5014260;28;20447;-83
2024/01/30 02:24:12;;;;;;;3.20;2.00;;;24.70;53.50;;;;;;4995026;28;20444;-84
2024/01/30 02:26:39;;;;;;;2.13;1.77;;;24.70;53.50;;;;;;4994752;28;20447;-84
2024/01/30 02:29:06;;;;;;;2.50;2.23;;;24.70;53.50;;;;;;4994566;28;20439;-84
2024/01/30 02:31:33;;;;;;;1.97;1.60;;;24.70;53.50;;;;;;4994559;28;20440;-84
2024/01/30 02:34:00;;;;;;;2.00;1.80;;;24.70;53.50;;;;;;4994643;28;20491;-85
2024/01/30 02:36:27;;;;;;;2.00;1.80;;;24.70;54.10;;;;;;4977410;28;20456;-85
2024/01/30 02:38:55;;;;;;;2.53;1.77;;;24.70;54.10;;;;;;4994792;28;20440;-84
2024/01/30 02:41:22;;;;;;;2.10;1.70;;;24.70;53.40;;;;;;4994308;28;20523;-87
2024/01/30 02:43:49;;;;;;;2.50;1.93;;;24.70;53.40;;;;;;4994437;28;20444;-85
2024/01/30 02:46:16;;;;;;;2.20;1.90;;;24.70;53.40;;;;;;4994524;28;20444;-84
2024/01/30 02:48:43;;;;;;;2.70;2.03;;;24.70;53.40;;;;;;4994538;28;20432;-83
2024/01/30 02:51:09;;;;;;;2.20;1.80;;;24.70;53.50;;;;;;4994341;28;20808;-86
2024/01/30 02:53:36;;;;;;;1.97;1.67;;;24.70;53.50;;;;;;4994301;28;20475;-84
2024/01/30 02:56:05;;;;;;;2.00;1.60;;;24.70;53.50;;;;;;4994260;28;20468;-84
2024/01/30 02:58:32;;;;;;;2.13;1.63;;;24.70;53.40;;;;;;4993441;28;20440;-85
2024/01/30 03:00:59;;;;;;;2.20;2.00;;;24.70;53.40;;;;;;5007542;28;20470;-85
2024/01/30 03:03:26;;;;;;;2.53;2.10;;;24.70;53.40;;;;;;5009799;28;20458;-84
2024/01/30 03:05:53;;;;;;;1.97;1.63;;;24.70;53.40;;;;;;5001228;28;20550;-90
2024/01/30 03:08:20;;;;;;;3.00;1.87;;;24.70;53.40;;;;;;4994102;28;20535;-85
2024/01/30 03:10:47;;;;;;;2.00;1.70;;;24.70;53.40;;;;;;4994170;28;20448;-84
2024/01/30 03:13:23;;;;;;;2.50;1.80;;;24.70;53.40;;;;;;4994251;28;20598;-83
2024/01/30 03:15:50;;;;;;;1.80;1.50;;;24.70;53.40;;;;;;4993955;28;20435;-84
2024/01/30 03:18:17;;;;;;;2.10;1.70;;;24.70;53.30;;;;;;4993803;28;20527;-85
2024/01/30 03:20:44;;;;;;;1.90;1.60;;;24.70;53.40;;;;;;4994129;28;20550;-84
2024/01/30 03:23:11;;;;;;;2.53;2.20;;;24.70;53.40;;;;;;4994057;28;20428;-89
2024/01/30 03:25:38;;;;;;;2.30;1.83;;;24.70;53.30;;;;;;4994026;28;20535;-84
2024/01/30 03:28:05;;;;;;;2.57;2.00;;;24.70;53.30;;;;;;4993956;28;20535;-84
2024/01/30 03:30:34;;;;;;;1.93;1.63;;;24.70;53.30;;;;;;4993944;28;20440;-85
2024/01/30 03:33:01;;;;;;;2.80;2.20;;;24.70;53.30;;;;;;4993662;28;20479;-85
2024/01/30 03:35:28;;;;;;;2.03;1.80;;;24.70;53.30;;;;;;4994107;28;20797;-90
2024/01/30 03:37:55;;;;;;;2.03;1.80;;;24.70;53.90;;;;;;4993756;28;20442;-85
2024/01/30 03:40:22;;;;;;;2.90;1.93;;;24.70;53.30;;;;;;4993630;28;20446;-84
2024/01/30 03:42:48;;;;;;;2.00;1.50;;;24.70;53.30;;;;;;4993808;28;20953;-84
2024/01/30 03:45:15;;;;;;;1.60;1.37;;;24.70;53.30;;;;;;4993704;28;20436;-84
2024/01/30 03:47:45;;;;;;;2.00;1.50;;;24.70;53.30;;;;;;4993550;28;20531;-84
2024/01/30 03:50:12;;;;;;;1.97;1.70;;;24.70;53.30;;;;;;4993590;28;20944;-85
2024/01/30 03:52:40;;;;;;;3.50;1.90;;;24.70;53.30;;;;;;4993801;28;20953;-85
2024/01/30 03:55:07;;;;;;;2.10;1.90;;;24.70;53.30;;;;;;4993398;28;20523;-85
2024/01/30 03:57:34;;;;;;;1.90;1.63;;;24.70;53.30;;;;;;4993728;28;20443;-85
2024/01/30 04:00:01;;;;;;;2.70;1.70;;;24.70;53.30;;;;;;4993642;28;20444;-85
2024/01/30 04:02:27;;;;;;;2.50;1.80;;;24.70;53.90;;;;;;4993537;28;20436;-85
2024/01/30 04:04:56;;;;;;;2.20;1.60;;;24.70;53.30;;;;;;4993698;28;20442;-85
2024/01/30 04:07:23;;;;;;;1.97;1.70;;;24.70;53.30;;;;;;4993779;28;20444;-85
2024/01/30 04:09:49;;;;;;;1.73;1.50;;;24.70;53.30;;;;;;4995246;28;20436;-84
2024/01/30 04:12:16;;;;;;;2.20;1.90;;;24.60;53.20;;;;;;4997165;28;20436;-90
2024/01/30 04:14:43;;;;;;;2.00;1.57;;;24.60;53.80;;;;;;4997047;28;20534;-85
2024/01/30 04:17:10;;;;;;;2.20;1.87;;;24.60;53.20;;;;;;4997170;28;20440;-85
2024/01/30 04:19:39;;;;;;;2.90;1.90;;;24.60;53.30;;;;;;4996961;28;20644;-85
2024/01/30 04:22:07;;;;;;;2.30;1.80;;;24.60;53.30;;;;;;4996593;28;20916;-85
2024/01/30 04:24:34;;;;;;;2.07;1.87;;;24.60;53.30;;;;;;4997007;28;20436;-88
2024/01/30 04:27:00;;;;;;;2.30;1.87;;;24.60;53.30;;;;;;4996770;28;20440;-85
2024/01/30 04:29:27;;;;;;;2.00;1.57;;;24.60;53.30;;;;;;4996926;28;21368;-85
2024/01/30 04:31:54;;;;;;;2.37;1.70;;;24.50;53.20;;;;;;4996836;28;20440;-85
2024/01/30 04:34:21;;;;;;;2.20;2.00;;;24.60;53.30;;;;;;4996604;28;20487;-85
2024/01/30 04:36:47;;;;;;;2.33;1.70;;;24.60;53.40;;;;;;4998095;28;20872;-85
2024/01/30 04:39:16;;;;;;;2.00;1.60;;;24.50;53.30;;;;;;4997836;28;20423;-84
2024/01/30 04:41:42;;;;;;;2.30;2.07;;;24.60;53.40;;;;;;4997022;28;20440;-85
2024/01/30 04:44:09;;;;;;;2.10;1.83;;;24.60;53.30;;;;;;4996919;28;20524;-84
2024/01/30 04:46:36;;;;;;;2.40;2.00;;;24.50;53.30;;;;;;4996704;28;20466;-85
2024/01/30 04:49:03;;;;;;;2.47;1.90;;;24.60;53.30;;;;;;4996397;28;21006;-85
2024/01/30 04:51:30;;;;;;;2.40;1.80;;;24.50;53.20;;;;;;4996525;28;20443;-85
2024/01/30 04:53:57;;;;;;;2.80;1.90;;;24.60;53.30;;;;;;4996070;28;21006;-85
2024/01/30 04:56:25;;;;;;;2.00;1.73;;;24.60;53.30;;;;;;4996106;28;21020;-85
2024/01/30 04:58:52;;;;;;;1.90;1.60;;;24.60;53.30;;;;;;4996793;28;20534;-90
2024/01/30 05:01:19;;;;;;;2.67;2.30;;;24.60;53.30;;;;;;4996747;28;20450;-90
2024/01/30 05:03:46;;;;;;;2.50;1.90;;;24.60;53.30;;;;;;4996914;28;20923;-89
2024/01/30 05:06:12;;;;;;;1.90;1.60;;;24.60;53.30;;;;;;4996323;28;20446;-84
2024/01/30 05:08:39;;;;;;;2.00;1.73;;;24.60;53.30;;;;;;4996712;28;20448;-86
2024/01/30 05:11:07;;;;;;;2.00;1.60;;;24.60;53.30;;;;;;4996403;28;20440;-84
2024/01/30 05:13:35;;;;;;;2.03;1.57;;;24.70;53.30;;;;;;5004950;28;20479;-84
2024/01/30 05:16:03;;;;;;;2.77;2.00;;;24.60;53.20;;;;;;5014699;28;20539;-85
2024/01/30 05:18:30;;;;;;;2.10;1.67;;;24.60;53.20;;;;;;5012840;28;20420;-81
2024/01/30 05:20:57;;;;;;;2.30;1.80;;;24.60;53.20;;;;;;5003664;28;20553;-86
2024/01/30 05:23:24;;;;;;;2.33;1.87;;;24.60;53.20;;;;;;4996488;28;20454;-91
2024/01/30 05:25:51;;;;;;;2.23;1.80;;;24.60;53.20;;;;;;4978898;28;20432;-84
2024/01/30 05:28:17;;;;;;;2.63;2.00;;;24.70;53.30;;;;;;4996091;28;20573;-83
2024/01/30 05:30:46;;;;;;;2.27;1.97;;;24.70;53.30;;;;;;4995772;28;20447;-89
2024/01/30 05:33:14;;;;;;;2.37;1.63;;;24.70;53.30;;;;;;4995814;28;20933;-84
2024/01/30 05:35:40;;;;;;;2.10;1.80;;;24.80;53.30;;;;;;4996318;28;20487;-84
2024/01/30 05:38:07;;;;;;;2.67;1.60;;;24.70;53.80;;;;;;4996148;28;20467;-84
2024/01/30 05:40:34;;;;;;;2.10;1.90;;;24.80;53.30;;;;;;4995578;28;20467;-87
2024/01/30 05:43:02;;;;;;;3.53;1.60;;;24.70;53.20;;;;;;5003297;28;20443;-85
2024/01/30 05:45:29;;;;;;;1.90;1.57;;;24.80;53.30;;;;;;5015084;28;20435;-85
2024/01/30 05:47:57;;;;;;;2.30;1.63;;;24.80;53.40;;;;;;5014646;28;20458;-92
2024/01/30 05:50:26;;;;;;;3.00;2.43;;;24.80;54.10;;;;;;5015952;28;20475;-87
2024/01/30 05:52:53;;;;;;;2.97;1.97;;;24.80;53.50;;;;;;5014953;28;20470;-86
2024/01/30 05:55:19;;;;;;;5.40;2.33;;;24.80;53.50;;;;;;5014681;28;20491;-89
2024/01/30 05:57:46;;;;;;;2.63;2.20;;;24.80;53.50;;;;;;5015271;28;20439;-85
2024/01/30 06:00:14;;;;;;;7.30;3.27;;;24.80;53.60;;;;;;5015190;28;20447;-90
2024/01/30 06:02:41;;;;;;;4.63;2.93;;;24.80;53.60;;;;;;5015188;28;20462;-87
2024/01/30 06:05:10;;;;;;;6.70;3.80;;;24.80;53.60;;;;;;5015137;28;20478;-90
2024/01/30 06:07:36;;;;;;;5.60;4.00;;;24.80;53.60;;;;;;5015172;28;20800;-86
2024/01/30 06:10:04;;;;;;;6.40;4.20;;;24.80;53.70;;;;;;5014842;28;20435;-87
2024/01/30 06:12:30;;;;;;;6.07;4.40;;;24.80;53.70;;;;;;5014680;28;20436;-86
2024/01/30 06:14:57;;;;;;;8.73;4.73;;;24.80;53.70;;;;;;5015068;28;20500;-86
2024/01/30 06:17:24;;;;;;;10.53;5.20;;;24.80;53.80;;;;;;5032041;28;20442;-85
2024/01/30 06:19:51;;;;;;;10.13;5.67;;;24.80;53.80;;;;;;5033434;28;20535;-85
2024/01/30 06:22:19;;;;;;;9.83;5.30;;;24.80;53.90;;;;;;5022130;28;20930;-93
2024/01/30 06:24:47;;;;;;;8.77;4.90;;;24.80;54.00;;;;;;5014748;28;20439;-86
2024/01/30 06:27:14;;;;;;;9.17;5.27;;;24.80;54.00;;;;;;5014657;28;20443;-89
2024/01/30 06:29:41;;;;;;;7.10;5.30;;;24.80;54.10;;;;;;5014623;28;20507;-91
2024/01/30 06:32:08;;;;;;;9.63;6.57;;;24.90;54.10;;;;;;5014224;28;20814;-91
2024/01/30 06:34:35;;;;;;;10.37;5.77;;;24.80;54.20;;;;;;5014586;28;20498;-91
2024/01/30 06:37:02;;;;;;;12.33;6.80;;;24.80;54.10;;;;;;5014140;28;20447;-90
2024/01/30 06:39:30;;;;;;;11.00;6.63;;;24.80;54.10;;;;;;5014736;28;20448;-85
2024/01/30 06:41:57;;;;;;;11.77;6.50;;;24.80;54.10;;;;;;5014292;28;20439;-85
2024/01/30 06:44:24;;;;;;;11.13;6.60;;;24.80;54.10;;;;;;5014527;28;20801;-86
2024/01/30 06:46:50;;;;;;;10.13;6.10;;;24.80;54.10;;;;;;5014469;28;20454;-86
2024/01/30 06:49:17;;;;;;;9.83;6.33;;;24.80;54.30;;;;;;4980347;28;20467;-84
2024/01/30 06:51:45;;;;;;;16.20;7.90;;;24.80;54.10;;;;;;4980419;28;20446;-86
2024/01/30 06:54:11;;;;;;;10.33;6.20;;;24.80;54.30;;;;;;5013322;28;20997;-93
2024/01/30 06:56:40;;;;;;;10.20;6.23;;;24.80;54.20;;;;;;5012706;28;20482;-85
2024/01/30 06:59:06;;;;;;;14.73;5.73;;;24.80;54.20;;;;;;5024404;28;20460;-86
2024/01/30 07:01:33;;;;;;;9.60;6.30;;;24.80;54.80;;;;;;5031581;28;20809;-87
2024/01/30 07:04:00;;;;;;;9.90;5.70;;;24.80;54.10;;;;;;5031558;28;20446;-86
2024/01/30 07:06:27;;;;;;;12.47;7.10;;;24.90;54.20;;;;;;5031870;28;20541;-86
2024/01/30 07:08:54;;;;;;;9.27;6.20;;;24.80;54.10;;;;;;5031884;28;20892;-86
2024/01/30 07:11:22;;;;;;;12.47;6.00;;;24.80;54.10;;;;;;5031736;28;20804;-86
2024/01/30 07:13:51;;;;;;;7.80;5.73;;;24.80;54.10;;;;;;5031362;28;20456;-86
2024/01/30 07:16:17;;;;;;;12.67;5.93;;;24.80;54.00;;;;;;5031771;28;21032;-93
2024/01/30 07:18:44;;;;;;;9.90;5.80;;;24.80;54.10;;;;;;5031649;28;20960;-85
2024/01/30 07:21:11;;;;;;;7.27;4.90;;;24.80;54.00;;;;;;5031066;28;20450;-86
2024/01/30 07:23:38;;;;;;;10.07;6.63;;;24.90;54.10;;;;;;5031733;28;20810;-86
2024/01/30 07:26:06;;;;;;;8.20;5.53;;;24.90;54.10;;;;;;5031624;28;20460;-86
2024/01/30 07:28:33;;;;;;;12.87;6.83;;;24.80;54.00;;;;;;5031854;28;20447;-86
2024/01/30 07:31:01;;;;;;;10.57;6.00;;;24.80;54.00;;;;;;5031790;28;20438;-86
2024/01/30 07:33:28;;;;;;;9.70;5.20;;;24.80;54.00;;;;;;5033226;28;20850;-86
2024/01/30 07:35:55;;;;;;;10.80;5.60;;;24.80;54.00;;;;;;5033220;28;20478;-85
2024/01/30 07:38:22;;;;;;;7.50;5.67;;;24.80;54.00;;;;;;5033290;28;20443;-86
2024/01/30 07:40:48;;;;;;;8.77;5.63;;;24.80;53.90;;;;;;5033045;28;20445;-86
2024/01/30 07:43:15;;;;;;;7.93;5.73;;;24.80;54.00;;;;;;5032966;28;20812;-86
2024/01/30 07:45:44;;;;;;;14.60;5.77;;;24.80;53.90;;;;;;5036066;28;20442;-86
2024/01/30 07:48:13;;;;;;;8.40;5.10;;;24.80;54.00;;;;;;5037365;28;20437;-86
2024/01/30 07:50:40;;;;;;;7.30;5.03;;;24.90;54.10;;;;;;5036964;28;20462;-86
2024/01/30 07:53:07;;;;;;;7.60;4.50;;;24.90;54.10;;;;;;5037643;28;20444;-86
2024/01/30 07:55:33;;;;;;;8.37;4.93;;;24.90;54.00;;;;;;5037228;28;20497;-86
2024/01/30 07:58:00;;;;;;;7.17;4.37;;;24.90;54.00;;;;;;5038779;28;20442;-85
2024/01/30 08:00:28;;;;;;;9.83;5.83;;;24.90;54.50;;;;;;5020594;28;20434;-88
2024/01/30 08:02:55;;;;;;;8.67;5.40;;;24.90;54.00;;;;;;5037741;28;20477;-86
2024/01/30 08:05:24;;;;;;;12.60;5.40;;;25.00;54.10;;;;;;5038687;28;20450;-86
2024/01/30 08:07:51;;;;;;;6.93;5.07;;;24.90;54.00;;;;;;5037396;28;20792;-86
2024/01/30 08:10:19;;;;;;;8.40;4.97;;;24.90;54.00;;;;;;5037396;28;20438;-86
2024/01/30 08:12:45;;;;;;;9.10;4.83;;;24.90;54.00;;;;;;5037565;28;20438;-84
2024/01/30 08:15:13;;;;;;;7.60;5.10;;;25.00;54.00;;;;;;5036276;28;20492;-85
2024/01/30 08:17:40;;;;;;;11.50;5.50;;;24.90;53.90;;;;;;5037270;28;20856;-86
2024/01/30 08:20:10;;;;;;;9.97;5.10;;;24.90;53.90;;;;;;5036989;28;20444;-86
2024/01/30 08:22:39;;;;;;;9.93;4.80;;;24.90;53.90;;;;;;5036583;28;20944;-85
2024/01/30 08:25:07;;;;;;;8.77;4.73;;;24.90;53.90;;;;;;5036671;28;20438;-85
2024/01/30 08:27:35;;;;;;;7.27;4.67;;;24.90;53.80;;;;;;5036720;28;20438;-86
2024/01/30 08:30:02;;;;;;;6.27;4.93;;;24.90;53.80;;;;;;5019657;28;20473;-86
2024/01/30 08:32:29;;;;;;;6.80;4.87;;;24.90;53.90;;;;;;5036894;28;20439;-85
2024/01/30 08:34:55;;;;;;;6.03;4.30;;;24.90;53.90;;;;;;5036299;28;21012;-85
2024/01/30 08:37:22;;;;;;;8.47;4.73;;;24.90;53.90;;;;;;5036105;28;20445;-86
2024/01/30 08:39:51;;;;;;;8.97;5.30;;;24.90;53.80;;;;;;5036647;28;20438;-85
2024/01/30 08:42:22;;;;;;;6.90;3.90;;;24.90;53.80;;;;;;5036671;28;20438;-86
2024/01/30 08:44:49;;;;;;;7.07;4.00;;;24.90;53.90;;;;;;5037434;28;20450;-86
2024/01/30 08:47:16;;;;;;;6.50;4.00;;;24.90;53.80;;;;;;5037537;28;20438;-93
2024/01/30 08:49:44;;;;;;;6.90;4.50;;;24.90;53.80;;;;;;5020267;28;20445;-94
2024/01/30 08:52:11;;;;;;;5.40;4.10;;;24.90;53.80;;;;;;5003000;28;20870;-86
2024/01/30 08:54:38;;;;;;;7.20;3.93;;;24.90;53.80;;;;;;5036190;28;20474;-86
2024/01/30 08:57:07;;;;;;;5.13;3.93;;;24.90;53.80;;;;;;5017689;28;20434;-86
2024/01/30 08:59:34;;;;;;;7.40;3.77;;;25.00;53.80;;;;;;5036767;28;20892;-86
2024/01/30 09:02:01;;;;;;;6.20;4.30;;;24.90;53.80;;;;;;5036697;28;20469;-86
2024/01/30 09:04:27;;;;;;;7.80;4.67;;;24.90;53.80;;;;;;5036778;28;20441;-86
2024/01/30 09:06:54;;;;;;;5.10;3.60;;;24.90;53.80;;;;;;5018860;28;20466;-86
2024/01/30 09:09:21;;;;;;;7.33;4.67;;;24.90;53.80;;;;;;5036077;28;20949;-86
2024/01/30 09:11:48;;;;;;;6.17;3.90;;;24.90;53.80;;;;;;5035894;28;20438;-86
2024/01/30 09:14:17;;;;;;;7.90;3.93;;;24.90;53.80;;;;;;5002266;28;20927;-86
2024/01/30 09:16:44;;;;;;;5.67;3.80;;;24.90;53.80;;;;;;5036117;28;21039;-87
2024/01/30 09:19:10;;;;;;;7.20;4.83;;;24.90;53.80;;;;;;5036944;28;20442;-85
2024/01/30 09:21:37;;;;;;;7.07;3.60;;;24.90;53.80;;;;;;5035629;28;20441;-86
2024/01/30 09:24:05;;;;;;;6.20;3.77;;;24.90;53.90;;;;;;5035837;28;20441;-86
2024/01/30 09:26:31;;;;;;;8.07;4.00;;;24.90;53.80;;;;;;5035962;28;20944;-87
2024/01/30 09:28:58;;;;;;;6.77;4.23;;;24.90;53.80;;;;;;5037068;28;20442;-87
2024/01/30 09:31:27;;;;;;;7.70;4.40;;;24.90;53.80;;;;;;5036770;28;21018;-86
2024/01/30 09:33:53;;;;;;;5.80;3.67;;;24.80;53.70;;;;;;5035341;28;20529;-87
2024/01/30 09:36:20;;;;;;;4.27;2.83;;;24.90;53.80;;;;;;5035923;28;20487;-91
2024/01/30 09:38:47;;;;;;;5.17;3.47;;;24.90;53.90;;;;;;5049668;28;20472;-84
2024/01/30 09:41:15;;;;;;;5.77;3.83;;;24.90;53.80;;;;;;5057955;28;20422;-87
2024/01/30 09:43:48;;;;;;;4.10;3.13;;;24.90;53.80;;;;;;5058295;28;20434;-86
2024/01/30 09:46:17;;;;;;;8.27;3.73;;;24.90;53.90;;;;;;5057144;28;20437;-88
2024/01/30 09:48:48;;;;;;;5.97;3.30;;;24.90;53.90;;;;;;5037338;28;20518;-85
2024/01/30 09:51:16;;;;;;;4.73;3.80;;;24.90;53.90;;;;;;5036168;28;20921;-85
2024/01/30 09:53:44;;;;;;;4.67;3.10;;;24.90;53.90;;;;;;5018265;28;20431;-86
2024/01/30 09:56:11;;;;;;;4.30;3.30;;;24.80;53.80;;;;;;5034904;28;20505;-86
2024/01/30 09:58:39;;;;;;;3.70;3.03;;;24.80;53.80;;;;;;5034877;28;20492;-88
2024/01/30 10:01:07;;;;;;;4.93;2.87;;;24.80;53.80;;;;;;5035711;28;20952;-84
2024/01/30 10:03:34;;;;;;;5.23;3.23;;;24.80;53.80;;;;;;5035220;28;20434;-84
2024/01/30 10:06:02;;;;;;;3.90;2.80;;;24.80;53.90;;;;;;5035182;28;20782;-85
2024/01/30 10:08:29;;;;;;;4.90;2.80;;;24.80;53.90;;;;;;5034452;28;20438;-85
2024/01/30 10:10:56;;;;;;;7.13;4.10;;;24.90;54.00;;;;;;5035731;28;20431;-92
2024/01/30 10:13:23;;;;;;;4.13;2.97;;;24.80;53.90;;;;;;5035145;28;20430;-85
2024/01/30 10:15:51;;;;;;;3.63;2.60;;;24.90;54.00;;;;;;5034589;28;20478;-85
2024/01/30 10:18:18;;;;;;;4.33;3.17;;;24.90;54.00;;;;;;5034560;28;20445;-85
2024/01/30 10:20:44;;;;;;;4.57;3.10;;;24.80;53.90;;;;;;5034224;28;20448;-86
2024/01/30 10:23:15;;;;;;;3.60;3.13;;;24.90;54.00;;;;;;5034755;28;20442;-86
2024/01/30 10:25:42;;;;;;;3.63;2.80;;;25.20;53.90;;;;;;5034656;28;20518;-85
2024/01/30 10:28:09;;;;;;;4.47;3.20;;;25.50;53.50;;;;;;5034753;28;20461;-85
2024/01/30 10:30:35;;;;;;;4.00;3.23;;;25.80;53.10;;;;;;5017227;28;20442;-85
2024/01/30 10:33:03;;;;;;;3.60;2.50;;;26.00;52.90;;;;;;5035236;28;20430;-85
2024/01/30 10:35:30;;;;;;;4.70;3.23;;;26.00;52.90;;;;;;5034645;28;20482;-86
2024/01/30 10:37:58;;;;;;;4.37;2.80;;;26.00;52.80;;;;;;5034221;28;20442;-86
2024/01/30 10:40:29;;;;;;;3.33;2.97;;;26.00;52.90;;;;;;5034113;28;20454;-85
2024/01/30 10:42:57;;;;;;;6.73;3.50;;;26.00;53.00;;;;;;5034207;28;20448;-86
2024/01/30 10:45:27;;;;;;;3.50;2.50;;;25.90;53.10;;;;;;5016639;28;20865;-85
2024/01/30 10:47:57;;;;;;;3.30;2.80;;;25.90;53.30;;;;;;5016246;28;20446;-85
2024/01/30 10:50:26;;;;;;;2.80;2.30;;;25.80;53.40;;;;;;5016548;28;20437;-86
2024/01/30 10:52:54;;;;;;;4.00;2.77;;;25.70;53.50;;;;;;5033549;28;20462;-86
2024/01/30 10:55:24;;;;;;;3.47;2.07;;;25.70;53.60;;;;;;5033228;28;20494;-86
2024/01/30 10:57:53;;;;;;;4.37;3.07;;;25.60;53.60;;;;;;5017197;28;20438;-85
2024/01/30 11:00:23;;;;;;;4.60;3.00;;;25.60;54.30;;;;;;5033396;28;20442;-86
2024/01/30 11:02:50;;;;;;;3.50;2.57;;;25.60;53.80;;;;;;5033434;28;20445;-86
2024/01/30 11:05:24;;;;;;;3.90;2.60;;;25.60;53.90;;;;;;5033361;28;20439;-88
2024/01/30 11:07:51;;;;;;;4.10;2.67;;;25.60;53.90;;;;;;5033628;28;20779;-86
2024/01/30 11:10:18;;;;;;;3.80;2.33;;;25.50;53.80;;;;;;5015826;28;20540;-86
2024/01/30 11:12:47;;;;;;;4.13;3.00;;;25.50;53.90;;;;;;5033310;28;20447;-86
2024/01/30 11:15:16;;;;;;;4.10;3.00;;;25.50;54.00;;;;;;5033092;28;20442;-86
2024/01/30 11:17:43;;;;;;;4.37;3.10;;;25.40;54.00;;;;;;5033385;28;20446;-85
2024/01/30 11:20:16;;;;;;;5.20;3.03;;;25.40;54.00;;;;;;5038130;28;20925;-86
2024/01/30 11:22:44;;;;;;;5.37;3.00;;;25.40;54.10;;;;;;5039914;28;20446;-85
2024/01/30 11:25:15;;;;;;;5.53;2.77;;;25.40;54.20;;;;;;5038021;28;20432;-88
2024/01/30 11:27:43;;;;;;;4.73;2.47;;;25.40;54.20;;;;;;5037330;28;20430;-86
2024/01/30 11:30:11;;;;;;;4.37;2.80;;;25.30;54.30;;;;;;5037601;28;20430;-86
2024/01/30 11:32:39;;;;;;;7.03;3.40;;;25.30;54.30;;;;;;5037332;28;20438;-85
2024/01/30 11:35:08;;;;;;;8.73;3.33;;;25.30;54.50;;;;;;5037034;28;20442;-93
2024/01/30 11:37:38;;;;;;;7.03;2.97;;;25.30;54.60;;;;;;5019251;28;20438;-85
2024/01/30 11:40:06;;;;;;;10.37;3.13;;;25.30;54.70;;;;;;5037125;28;20430;-86
2024/01/30 11:42:34;;;;;;;11.57;3.57;;;25.30;54.80;;;;;;5036888;28;20801;-86
2024/01/30 11:45:02;;;;;;;14.13;3.53;;;25.30;54.80;;;;;;5036953;28;20457;-85
2024/01/30 11:47:29;;;;;;;7.83;3.43;;;25.20;54.80;;;;;;5037050;28;20492;-85
2024/01/30 11:49:57;;;;;;;11.00;3.43;;;25.20;54.90;;;;;;5036565;28;20438;-86
2024/01/30 11:52:25;;;;;;;13.93;3.20;;;25.20;54.90;;;;;;5036805;28;20450;-86
2024/01/30 11:54:54;;;;;;;9.57;3.40;;;25.20;55.00;;;;;;5036695;28;20481;-85
2024/01/30 11:57:21;;;;;;;8.93;3.00;;;25.20;55.00;;;;;;5036604;28;20486;-85
2024/01/30 11:59:47;;;;;;;17.90;4.20;;;25.30;55.10;;;;;;5036615;28;20453;-85
2024/01/30 12:02:18;;;;;;;10.93;3.20;;;25.20;55.10;;;;;;5036600;28;20434;-85
2024/01/30 12:04:45;;;;;;;15.77;3.90;;;25.20;55.10;;;;;;5036808;28;20933;-85
2024/01/30 12:07:15;;;;;;;8.23;3.80;;;25.20;55.10;;;;;;5036436;28;20449;-85
2024/01/30 12:09:42;;;;;;;9.80;3.50;;;25.20;55.10;;;;;;5036404;28;20973;-84
2024/01/30 12:12:11;;;;;;;9.50;3.57;;;25.20;55.10;;;;;;5036607;28;20457;-85
2024/01/30 12:14:40;;;;;;;10.20;3.63;;;25.20;55.10;;;;;;5018606;28;20442;-84
2024/01/30 12:17:08;;;;;;;8.63;2.93;;;25.30;55.10;;;;;;5036554;28;20993;-84
2024/01/30 12:19:35;;;;;;;7.93;3.00;;;25.30;55.00;;;;;;5018790;28;20546;-85
2024/01/30 12:22:02;;;;;;;6.83;2.63;;;25.20;54.90;;;;;;5036576;28;20454;-85
2024/01/30 12:24:31;;;;;;;7.10;2.90;;;25.30;55.00;;;;;;5036266;28;20445;-85
2024/01/30 12:26:59;;;;;;;8.80;2.73;;;25.30;54.90;;;;;;5036219;28;20438;-85
2024/01/30 12:29:26;;;;;;;11.13;3.10;;;25.20;54.90;;;;;;5037438;28;20450;-85
2024/01/30 12:31:54;;;;;;;12.00;3.40;;;25.30;54.90;;;;;;5018648;28;20439;-85
2024/01/30 12:34:21;;;;;;;13.83;3.50;;;25.20;54.90;;;;;;5036089;28;20434;-85
2024/01/30 12:36:48;;;;;;;8.90;3.40;;;25.20;54.80;;;;;;5036187;28;20580;-85
2024/01/30 12:39:17;;;;;;;7.63;3.30;;;25.20;54.80;;;;;;5036422;28;20438;-85
2024/01/30 12:41:45;;;;;;;11.93;3.27;;;25.20;54.80;;;;;;5037791;28;20438;-85
2024/01/30 12:44:14;;;;;;;8.80;3.10;;;25.20;54.80;;;;;;5018827;28;20449;-87
2024/01/30 12:46:41;;;;;;;10.40;3.30;;;25.20;54.80;;;;;;5036681;28;20461;-93